Time;durP1;ratioP1;P1;durP2;ratioP2;P2;SDS_P1;SDS_P2;PMS_P1;PMS_P2;Temp;Humidity;BMP_temperature;BMP_pressure;BME280_temperature;BME280_humidity;BME280_pressure;Samples;Min_cycle;Max_cycle;Signal;HPM_P1;HPM_P2
2021/09/20 00:01:09;;;;;;;4.35;3.13;;;13.60;99.90;;;;;;5033972;28;20032;-84
2021/09/20 00:03:35;;;;;;;4.50;3.40;;;13.50;99.90;;;;;;5022458;28;20048;-84
2021/09/20 00:06:01;;;;;;;5.35;3.20;;;13.50;99.90;;;;;;5028952;28;20392;-84
2021/09/20 00:08:27;;;;;;;4.68;3.42;;;13.40;99.90;;;;;;5029460;28;20025;-84
2021/09/20 00:10:53;;;;;;;4.10;3.03;;;13.30;99.90;;;;;;5021325;28;20039;-85
2021/09/20 00:13:19;;;;;;;4.13;3.33;;;13.30;99.90;;;;;;5033720;28;20114;-84
2021/09/20 00:15:45;;;;;;;6.43;3.65;;;13.20;99.90;;;;;;5041141;28;20540;-84
2021/09/20 00:18:12;;;;;;;6.07;3.95;;;13.20;99.90;;;;;;5037055;28;20116;-84
2021/09/20 00:20:38;;;;;;;6.95;3.75;;;13.10;99.90;;;;;;5023815;28;20053;-84
2021/09/20 00:23:04;;;;;;;4.40;3.20;;;13.10;99.90;;;;;;5033578;28;20122;-84
2021/09/20 00:25:30;;;;;;;5.38;3.63;;;13.10;99.90;;;;;;5038875;28;20029;-84
2021/09/20 00:27:56;;;;;;;5.30;3.65;;;13.00;99.90;;;;;;5036668;28;20425;-84
2021/09/20 00:30:22;;;;;;;5.28;3.40;;;13.00;99.90;;;;;;5043308;28;20047;-84
2021/09/20 00:32:48;;;;;;;5.63;3.30;;;12.90;99.90;;;;;;5031962;28;20030;-84
2021/09/20 00:35:17;;;;;;;6.38;4.00;;;12.90;99.90;;;;;;5020318;28;20056;-84
2021/09/20 00:37:44;;;;;;;6.15;3.72;;;12.90;99.90;;;;;;5030830;28;20473;-82
2021/09/20 00:40:11;;;;;;;5.85;3.58;;;12.80;99.90;;;;;;5026286;28;20055;-83
2021/09/20 00:42:38;;;;;;;6.35;3.90;;;12.80;99.90;;;;;;5041572;28;20037;-83
2021/09/20 00:45:05;;;;;;;5.47;4.00;;;12.70;99.90;;;;;;5032926;28;20028;-82
2021/09/20 00:47:32;;;;;;;5.28;3.70;;;12.70;99.90;;;;;;5020674;28;20035;-83
2021/09/20 00:49:57;;;;;;;4.78;3.47;;;12.70;99.90;;;;;;5028570;28;20536;-81
2021/09/20 00:52:25;;;;;;;4.47;3.25;;;12.70;99.90;;;;;;5028158;28;20033;-82
2021/09/20 00:54:52;;;;;;;5.03;3.42;;;12.60;99.90;;;;;;5021323;28;20091;-82
2021/09/20 00:57:19;;;;;;;4.88;3.13;;;12.70;99.90;;;;;;5032915;28;20104;-82
2021/09/20 00:59:45;;;;;;;4.50;3.13;;;12.60;99.90;;;;;;5022070;28;20385;-82
2021/09/20 01:02:12;;;;;;;3.78;2.88;;;12.60;99.90;;;;;;5044102;28;20018;-83
2021/09/20 01:04:38;;;;;;;4.60;3.50;;;12.60;99.90;;;;;;5029568;28;20366;-83
2021/09/20 01:07:05;;;;;;;5.65;3.70;;;12.50;99.90;;;;;;5019844;28;20370;-83
2021/09/20 01:09:32;;;;;;;5.03;3.30;;;12.50;99.90;;;;;;5031921;28;20026;-83
2021/09/20 01:11:58;;;;;;;5.60;3.80;;;12.50;99.90;;;;;;5041169;28;20056;-82
2021/09/20 01:14:24;;;;;;;6.63;3.75;;;12.50;99.90;;;;;;5024604;28;20029;-83
2021/09/20 01:16:51;;;;;;;4.55;3.33;;;12.40;99.90;;;;;;5031143;28;20083;-83
2021/09/20 01:19:17;;;;;;;4.93;3.33;;;12.40;99.90;;;;;;5033498;28;20456;-83
2021/09/20 01:21:43;;;;;;;6.47;3.75;;;12.40;99.90;;;;;;5022069;28;20033;-83
2021/09/20 01:24:09;;;;;;;5.25;3.65;;;12.40;99.90;;;;;;5026311;28;20026;-84
2021/09/20 01:26:35;;;;;;;4.88;3.20;;;12.30;99.90;;;;;;5029154;28;20083;-84
2021/09/20 01:29:06;;;;;;;5.22;3.72;;;12.30;99.90;;;;;;5019174;28;20029;-85
2021/09/20 01:31:32;;;;;;;4.97;3.47;;;12.30;99.90;;;;;;5035861;28;20032;-84
2021/09/20 01:33:58;;;;;;;4.65;3.13;;;12.30;99.90;;;;;;5027864;28;20025;-83
2021/09/20 01:36:24;;;;;;;5.13;3.22;;;12.20;99.90;;;;;;5027372;28;20037;-84
2021/09/20 01:38:51;;;;;;;4.60;3.08;;;12.20;99.90;;;;;;5038167;28;20108;-84
2021/09/20 01:41:17;;;;;;;4.95;3.10;;;12.20;99.90;;;;;;5050737;28;20107;-84
2021/09/20 01:43:44;;;;;;;6.03;3.58;;;12.20;99.90;;;;;;5029690;28;20028;-83
2021/09/20 01:46:10;;;;;;;5.68;3.35;;;12.20;99.90;;;;;;5042813;28;20033;-84
2021/09/20 01:48:37;;;;;;;4.85;3.38;;;12.20;99.90;;;;;;5035486;28;20051;-84
2021/09/20 01:51:03;;;;;;;5.28;3.60;;;12.10;99.90;;;;;;5002333;28;20057;-84
2021/09/20 01:53:30;;;;;;;5.50;3.63;;;12.10;99.90;;;;;;5031474;28;20112;-84
2021/09/20 01:55:56;;;;;;;6.53;3.75;;;12.10;99.90;;;;;;5023191;28;20159;-84
2021/09/20 01:58:24;;;;;;;5.90;3.42;;;12.10;99.90;;;;;;5024198;28;20033;-83
2021/09/20 02:00:50;;;;;;;5.25;3.40;;;12.10;99.90;;;;;;5030551;28;20024;-84
2021/09/20 02:03:17;;;;;;;5.05;3.70;;;12.00;99.90;;;;;;5050620;28;20102;-84
2021/09/20 02:05:43;;;;;;;5.68;3.45;;;12.00;99.90;;;;;;5038767;28;20028;-84
2021/09/20 02:08:09;;;;;;;6.05;3.70;;;12.00;99.90;;;;;;5035241;28;20019;-84
2021/09/20 02:10:36;;;;;;;5.32;3.55;;;11.90;99.90;;;;;;5021195;28;20029;-83
2021/09/20 02:13:02;;;;;;;5.22;3.25;;;11.90;99.90;;;;;;5031634;28;20060;-84
2021/09/20 02:15:29;;;;;;;5.55;3.70;;;11.90;99.90;;;;;;5031026;28;20021;-84
2021/09/20 02:17:55;;;;;;;4.70;3.05;;;11.90;99.90;;;;;;5022979;28;20033;-84
2021/09/20 02:20:21;;;;;;;5.10;3.38;;;11.80;99.90;;;;;;5024084;28;20386;-83
2021/09/20 02:22:47;;;;;;;6.65;3.90;;;11.80;99.90;;;;;;5030120;28;20095;-83
2021/09/20 02:25:14;;;;;;;4.57;3.17;;;11.80;99.90;;;;;;5018491;28;20026;-83
2021/09/20 02:27:40;;;;;;;5.68;3.78;;;11.80;99.90;;;;;;5029504;28;20021;-83
2021/09/20 02:30:07;;;;;;;5.13;3.75;;;11.70;99.90;;;;;;5024372;28;20025;-84
2021/09/20 02:32:35;;;;;;;5.35;3.78;;;11.70;99.90;;;;;;5022284;28;20510;-83
2021/09/20 02:35:01;;;;;;;4.13;3.00;;;11.70;99.90;;;;;;5031319;28;20071;-83
2021/09/20 02:37:27;;;;;;;5.03;3.60;;;11.60;99.90;;;;;;5036764;28;20025;-83
2021/09/20 02:39:53;;;;;;;4.60;3.17;;;11.60;99.90;;;;;;5052191;28;20040;-83
2021/09/20 02:42:21;;;;;;;5.75;4.00;;;11.60;99.90;;;;;;5023839;28;20028;-83
2021/09/20 02:44:48;;;;;;;4.60;3.40;;;11.60;99.90;;;;;;5029664;28;20036;-84
2021/09/20 02:47:14;;;;;;;5.03;3.50;;;11.60;99.90;;;;;;5018104;28;20030;-84
2021/09/20 02:49:40;;;;;;;4.85;3.45;;;11.50;99.90;;;;;;5029403;28;20500;-83
2021/09/20 02:52:07;;;;;;;5.28;3.65;;;11.60;99.90;;;;;;5024298;28;20024;-84
2021/09/20 02:54:33;;;;;;;5.13;3.60;;;11.50;99.90;;;;;;5039737;28;20420;-85
2021/09/20 02:56:59;;;;;;;5.72;3.85;;;11.50;99.90;;;;;;5048988;28;20071;-84
2021/09/20 02:59:25;;;;;;;5.55;3.72;;;11.40;99.90;;;;;;5018516;28;20044;-84
2021/09/20 03:01:51;;;;;;;5.82;3.85;;;11.40;99.90;;;;;;5027811;28;20048;-83
2021/09/20 03:04:18;;;;;;;6.22;4.25;;;11.40;99.90;;;;;;5025433;28;20025;-84
2021/09/20 03:06:44;;;;;;;5.05;3.42;;;11.40;99.90;;;;;;5034641;28;20021;-84
2021/09/20 03:09:11;;;;;;;4.20;3.20;;;11.40;99.90;;;;;;5018354;28;20099;-84
2021/09/20 03:11:38;;;;;;;6.75;3.70;;;11.40;99.90;;;;;;5029040;28;20042;-84
2021/09/20 03:14:05;;;;;;;5.07;3.75;;;11.40;99.90;;;;;;5023378;28;20086;-84
2021/09/20 03:16:31;;;;;;;5.32;3.72;;;11.40;99.90;;;;;;5021840;28;20079;-84
2021/09/20 03:18:58;;;;;;;5.30;3.65;;;11.30;99.90;;;;;;5030374;28;20334;-84
2021/09/20 03:21:25;;;;;;;5.65;3.70;;;11.30;99.90;;;;;;5048972;28;20105;-84
2021/09/20 03:23:52;;;;;;;4.65;3.22;;;11.30;99.90;;;;;;5024861;28;20025;-84
2021/09/20 03:26:18;;;;;;;5.93;3.88;;;11.30;99.90;;;;;;5027629;28;20037;-84
2021/09/20 03:28:45;;;;;;;5.45;3.42;;;11.30;99.90;;;;;;5050409;28;20078;-83
2021/09/20 03:31:11;;;;;;;5.93;3.70;;;11.30;99.90;;;;;;5054416;28;20036;-84
2021/09/20 03:33:38;;;;;;;5.75;3.55;;;11.30;99.90;;;;;;5023214;28;20024;-84
2021/09/20 03:36:04;;;;;;;5.65;3.88;;;11.20;99.90;;;;;;5029428;28;20025;-84
2021/09/20 03:38:30;;;;;;;5.60;3.80;;;11.20;99.90;;;;;;5030828;28;20062;-83
2021/09/20 03:40:57;;;;;;;5.00;3.63;;;11.20;99.90;;;;;;5021885;28;20037;-83
2021/09/20 03:43:23;;;;;;;5.07;3.60;;;11.20;99.90;;;;;;5052080;28;20028;-83
2021/09/20 03:45:49;;;;;;;4.55;3.17;;;11.20;99.90;;;;;;5024703;28;20467;-82
2021/09/20 03:48:16;;;;;;;5.00;3.70;;;11.20;99.90;;;;;;5045140;28;20039;-83
2021/09/20 03:50:43;;;;;;;5.20;3.67;;;11.20;99.90;;;;;;5032010;28;20029;-83
2021/09/20 03:53:09;;;;;;;4.93;3.40;;;11.20;99.90;;;;;;5021420;28;20025;-84
2021/09/20 03:55:36;;;;;;;5.75;3.88;;;11.20;99.90;;;;;;5033055;28;20036;-84
2021/09/20 03:58:02;;;;;;;5.10;3.55;;;11.10;99.90;;;;;;5025674;28;20053;-84
2021/09/20 04:00:30;;;;;;;6.07;4.28;;;11.10;99.90;;;;;;5025315;28;20149;-84
2021/09/20 04:02:57;;;;;;;5.60;3.60;;;11.10;99.90;;;;;;5033789;28;20453;-83
2021/09/20 04:05:23;;;;;;;5.97;3.97;;;11.10;99.90;;;;;;5021039;28;20024;-83
2021/09/20 04:07:50;;;;;;;6.57;4.45;;;11.10;99.90;;;;;;5055243;28;20029;-84
2021/09/20 04:10:16;;;;;;;6.70;4.43;;;11.10;99.90;;;;;;5044228;28;20084;-84
2021/09/20 04:12:42;;;;;;;6.07;4.07;;;11.10;99.90;;;;;;5048851;28;20500;-84
2021/09/20 04:15:10;;;;;;;5.03;3.58;;;11.10;99.90;;;;;;5035526;28;20032;-84
2021/09/20 04:17:37;;;;;;;5.38;4.05;;;11.20;99.90;;;;;;5022246;28;20473;-84
2021/09/20 04:20:05;;;;;;;5.07;3.90;;;11.10;99.90;;;;;;5046421;28;20038;-85
2021/09/20 04:22:32;;;;;;;5.15;3.50;;;11.10;99.90;;;;;;5029751;28;20017;-82
2021/09/20 04:24:59;;;;;;;5.90;3.75;;;11.10;99.90;;;;;;5020681;28;20032;-83
2021/09/20 04:27:27;;;;;;;5.82;3.53;;;11.10;99.90;;;;;;5036784;28;20029;-83
2021/09/20 04:29:54;;;;;;;5.60;3.53;;;11.10;99.90;;;;;;5047688;28;20041;-83
2021/09/20 04:32:20;;;;;;;6.57;3.80;;;11.10;99.90;;;;;;5028120;28;20095;-82
2021/09/20 04:34:47;;;;;;;5.70;3.53;;;11.10;99.90;;;;;;5020338;28;20022;-82
2021/09/20 04:37:16;;;;;;;5.53;3.33;;;11.10;99.90;;;;;;5017240;28;20072;-82
2021/09/20 04:39:43;;;;;;;5.07;3.25;;;11.00;99.90;;;;;;5037899;28;20026;-83
2021/09/20 04:42:11;;;;;;;5.30;3.65;;;11.00;99.90;;;;;;5025157;28;20052;-83
2021/09/20 04:44:51;;;;;;;4.97;3.45;;;11.00;99.90;;;;;;5040135;28;20060;-83
2021/09/20 04:47:19;;;;;;;5.40;3.58;;;11.00;99.90;;;;;;5031723;28;20128;-84
2021/09/20 04:49:50;;;;;;;5.38;3.60;;;10.90;99.90;;;;;;5024904;28;20033;-84
2021/09/20 04:52:18;;;;;;;5.10;3.20;;;11.00;99.90;;;;;;5024057;28;20124;-83
2021/09/20 04:54:45;;;;;;;5.00;3.60;;;10.90;99.90;;;;;;5026625;28;20029;-83
2021/09/20 04:57:12;;;;;;;6.15;4.07;;;10.90;99.90;;;;;;5043391;28;20029;-84
2021/09/20 04:59:40;;;;;;;5.95;4.50;;;10.90;99.90;;;;;;5023917;28;20470;-83
2021/09/20 05:02:07;;;;;;;6.45;4.63;;;10.90;99.90;;;;;;5026180;28;20031;-84
2021/09/20 05:04:34;;;;;;;6.35;4.07;;;10.90;99.90;;;;;;5027202;28;20025;-83
2021/09/20 05:07:01;;;;;;;5.65;3.67;;;10.90;99.90;;;;;;5024678;28;20186;-83
2021/09/20 05:09:29;;;;;;;5.60;4.13;;;10.90;99.90;;;;;;5023511;28;20512;-84
2021/09/20 05:11:55;;;;;;;6.57;4.00;;;10.90;99.90;;;;;;5020501;28;20136;-83
2021/09/20 05:14:22;;;;;;;5.78;3.38;;;10.90;99.90;;;;;;5023422;28;20038;-84
2021/09/20 05:16:52;;;;;;;5.85;4.35;;;10.90;99.90;;;;;;5022609;28;20033;-83
2021/09/20 05:19:19;;;;;;;6.40;4.30;;;10.90;99.90;;;;;;5022260;28;20561;-84
2021/09/20 05:21:45;;;;;;;5.70;3.88;;;10.90;99.90;;;;;;5019574;28;20125;-83
2021/09/20 05:24:13;;;;;;;6.75;4.82;;;10.90;99.90;;;;;;5020746;28;20072;-83
2021/09/20 05:26:41;;;;;;;5.97;4.07;;;10.90;99.90;;;;;;5019332;28;20473;-84
2021/09/20 05:29:07;;;;;;;6.35;4.13;;;10.90;99.90;;;;;;5019757;28;20136;-84
2021/09/20 05:31:35;;;;;;;6.20;4.15;;;10.90;99.90;;;;;;5020368;28;20886;-84
2021/09/20 05:34:01;;;;;;;6.70;4.28;;;10.90;99.90;;;;;;5015252;28;20025;-85
2021/09/20 05:36:28;;;;;;;5.90;4.10;;;10.90;99.90;;;;;;5018300;28;20018;-84
2021/09/20 05:38:55;;;;;;;5.80;4.00;;;10.90;99.90;;;;;;5021290;28;20021;-84
2021/09/20 05:41:25;;;;;;;6.78;4.00;;;11.00;99.90;;;;;;5018108;28;20081;-83
2021/09/20 05:43:51;;;;;;;6.82;4.70;;;10.90;99.90;;;;;;5016609;28;20025;-83
2021/09/20 05:46:18;;;;;;;7.88;4.40;;;11.00;99.90;;;;;;5017097;28;20067;-84
2021/09/20 05:48:46;;;;;;;7.07;4.95;;;11.00;99.90;;;;;;5024915;28;20028;-84
2021/09/20 05:51:15;;;;;;;7.07;4.18;;;11.00;99.90;;;;;;5022327;28;20018;-84
2021/09/20 05:53:50;;;;;;;6.43;4.30;;;11.10;99.90;;;;;;5025834;28;20109;-85
2021/09/20 05:56:17;;;;;;;6.35;4.50;;;11.00;99.90;;;;;;5017555;28;20021;-85
2021/09/20 05:58:43;;;;;;;6.65;4.32;;;11.10;99.90;;;;;;5018793;28;20030;-85
2021/09/20 06:01:12;;;;;;;6.28;4.13;;;11.10;99.90;;;;;;4994267;28;20038;-85
2021/09/20 06:03:37;;;;;;;5.88;4.18;;;11.10;99.90;;;;;;5011479;28;20026;-85
2021/09/20 06:06:03;;;;;;;5.40;4.00;;;11.10;99.90;;;;;;5021356;28;20033;-85
2021/09/20 06:08:32;;;;;;;6.07;4.50;;;11.10;99.90;;;;;;5017939;28;20022;-85
2021/09/20 06:11:00;;;;;;;7.72;5.10;;;11.20;99.90;;;;;;5020402;28;20036;-85
2021/09/20 06:13:27;;;;;;;6.60;4.35;;;11.20;99.90;;;;;;5023394;28;20026;-85
2021/09/20 06:15:54;;;;;;;6.93;4.78;;;11.30;99.90;;;;;;5023340;28;20044;-85
2021/09/20 06:18:23;;;;;;;6.72;4.88;;;11.30;99.90;;;;;;5038819;28;20057;-85
2021/09/20 06:20:51;;;;;;;8.15;5.20;;;11.30;99.90;;;;;;5047079;28;20033;-85
2021/09/20 06:23:20;;;;;;;7.20;4.75;;;11.40;99.90;;;;;;5025310;28;20461;-85
2021/09/20 06:25:48;;;;;;;7.28;4.93;;;11.50;99.90;;;;;;5029852;28;20028;-84
2021/09/20 06:28:17;;;;;;;7.45;5.03;;;11.50;99.90;;;;;;5014994;28;20029;-85
2021/09/20 06:30:44;;;;;;;8.07;5.43;;;11.50;99.90;;;;;;5021435;28;20026;-85
2021/09/20 06:33:16;;;;;;;7.15;5.22;;;11.60;99.90;;;;;;5022896;28;20025;-84
2021/09/20 06:35:49;;;;;;;7.33;5.13;;;11.60;99.90;;;;;;5018560;28;20037;-84
2021/09/20 06:38:14;;;;;;;7.95;5.35;;;11.70;99.90;;;;;;5031066;28;20276;-85
2021/09/20 06:40:44;;;;;;;8.32;6.25;;;11.70;99.90;;;;;;5011449;28;20035;-85
2021/09/20 06:43:13;;;;;;;7.22;5.57;;;11.70;99.90;;;;;;5025540;28;20036;-84
2021/09/20 06:45:40;;;;;;;6.50;5.07;;;11.80;99.90;;;;;;5028602;28;20099;-85
2021/09/20 06:48:06;;;;;;;6.15;4.55;;;11.90;99.90;;;;;;5001870;28;20052;-85
2021/09/20 06:50:32;;;;;;;5.82;4.70;;;11.90;99.90;;;;;;5025681;28;20393;-84
2021/09/20 06:52:59;;;;;;;6.53;5.18;;;12.00;99.90;;;;;;5044380;28;20058;-85
2021/09/20 06:55:26;;;;;;;7.53;4.90;;;12.10;99.90;;;;;;5023737;28;20017;-85
2021/09/20 06:58:00;;;;;;;7.70;5.55;;;12.30;99.90;;;;;;5019981;28;20108;-84
2021/09/20 07:00:28;;;;;;;7.22;5.60;;;12.40;99.90;;;;;;5031577;28;20094;-85
2021/09/20 07:02:54;;;;;;;7.50;5.32;;;12.60;99.90;;;;;;5010135;28;20071;-85
2021/09/20 07:05:21;;;;;;;7.47;5.57;;;12.70;99.90;;;;;;5027749;28;20092;-85
2021/09/20 07:07:48;;;;;;;7.93;6.18;;;12.70;99.90;;;;;;5023648;28;20104;-84
2021/09/20 07:10:16;;;;;;;7.78;5.55;;;12.80;99.90;;;;;;4995712;28;20025;-83
2021/09/20 07:12:46;;;;;;;7.95;5.60;;;12.90;99.90;;;;;;5021001;28;20647;-84
2021/09/20 07:15:38;;;;;;;7.80;5.45;;;13.00;99.90;;;;;;5024172;28;20053;-83
2021/09/20 07:18:06;;;;;;;8.10;5.70;;;13.10;99.90;;;;;;5022542;28;20018;-84
2021/09/20 07:20:39;;;;;;;6.85;5.15;;;13.20;99.90;;;;;;5023167;28;20064;-84
2021/09/20 07:23:14;;;;;;;7.68;5.53;;;13.20;99.90;;;;;;5025043;28;20022;-84
2021/09/20 07:25:43;;;;;;;9.90;5.22;;;13.30;99.90;;;;;;5023083;28;20052;-83
2021/09/20 07:28:11;;;;;;;7.85;5.93;;;13.30;99.90;;;;;;5021068;28;20049;-84
2021/09/20 07:30:46;;;;;;;8.73;5.40;;;13.40;99.90;;;;;;5005894;28;20030;-83
2021/09/20 07:33:13;;;;;;;8.88;5.28;;;13.50;99.90;;;;;;5020711;28;20049;-85
2021/09/20 07:35:41;;;;;;;7.03;5.25;;;13.50;99.90;;;;;;5021696;28;20030;-85
2021/09/20 07:38:14;;;;;;;8.23;6.00;;;13.60;99.90;;;;;;5023162;28;20068;-84
2021/09/20 07:40:46;;;;;;;7.80;6.20;;;13.60;99.90;;;;;;5022983;28;20048;-85
2021/09/20 07:43:15;;;;;;;7.40;5.47;;;13.60;99.90;;;;;;5025883;28;20028;-86
2021/09/20 07:45:44;;;;;;;8.27;6.10;;;13.70;99.90;;;;;;5023358;28;20021;-85
2021/09/20 07:48:27;;;;;;;9.10;5.45;;;13.70;99.90;;;;;;5025605;28;20046;-84
2021/09/20 07:50:56;;;;;;;9.60;6.20;;;13.70;99.90;;;;;;5043149;28;20121;-85
2021/09/20 07:53:22;;;;;;;7.75;6.28;;;13.70;99.90;;;;;;5026436;28;20034;-85
2021/09/20 07:55:48;;;;;;;8.50;6.65;;;13.80;99.90;;;;;;5023253;28;20064;-85
2021/09/20 07:58:16;;;;;;;8.00;6.15;;;13.80;99.90;;;;;;5021905;28;20014;-85
2021/09/20 08:00:44;;;;;;;7.95;5.82;;;13.80;99.90;;;;;;5027903;28;20060;-84
2021/09/20 08:03:18;;;;;;;9.23;5.63;;;13.90;99.90;;;;;;5027504;28;20075;-85
2021/09/20 08:05:52;;;;;;;7.97;5.97;;;14.00;99.90;;;;;;5013664;28;20478;-85
2021/09/20 08:08:26;;;;;;;7.00;5.13;;;14.00;99.90;;;;;;5021952;28;20308;-86
2021/09/20 08:10:56;;;;;;;7.60;5.90;;;14.10;99.90;;;;;;5021140;28;20053;-85
2021/09/20 08:13:33;;;;;;;8.02;5.20;;;14.20;99.90;;;;;;5022867;28;20108;-85
2021/09/20 08:16:06;;;;;;;9.63;5.70;;;14.30;99.90;;;;;;5021905;28;20489;-85
2021/09/20 08:18:33;;;;;;;7.22;5.72;;;14.30;99.90;;;;;;5019278;28;20026;-85
2021/09/20 08:20:59;;;;;;;12.05;5.43;;;14.30;99.90;;;;;;5021779;28;20121;-85
2021/09/20 08:23:32;;;;;;;7.15;5.25;;;14.40;99.90;;;;;;5019993;28;20107;-84
2021/09/20 08:26:05;;;;;;;;;;;14.40;99.90;;;;;;5023946;28;20040;-84
2021/09/20 08:28:34;;;;;;;7.13;5.70;;;14.40;99.90;;;;;;5019495;28;20007;-84
2021/09/20 08:31:07;;;;;;;10.02;5.55;;;14.50;99.90;;;;;;5026836;28;20029;-84
2021/09/20 08:33:35;;;;;;;;;;;14.60;99.90;;;;;;5024130;28;20030;-85
2021/09/20 08:36:03;;;;;;;6.20;4.60;;;14.60;99.90;;;;;;5027636;28;19935;-85
2021/09/20 08:38:31;;;;;;;8.75;6.18;;;14.70;99.90;;;;;;5018882;28;20474;-84
2021/09/20 08:40:58;;;;;;;8.63;5.32;;;14.70;99.90;;;;;;5026009;28;20045;-86
2021/09/20 08:43:29;;;;;;;7.30;5.57;;;14.70;99.90;;;;;;5022489;28;20108;-85
2021/09/20 08:46:01;;;;;;;8.63;5.95;;;14.80;99.90;;;;;;5032376;28;20071;-85
2021/09/20 08:48:38;;;;;;;7.38;5.70;;;14.80;99.90;;;;;;5025501;28;20032;-85
2021/09/20 08:51:06;;;;;;;7.35;5.25;;;14.90;99.90;;;;;;5025596;28;20192;-85
2021/09/20 08:53:42;;;;;;;7.20;5.00;;;15.00;99.90;;;;;;5026931;28;20026;-84
2021/09/20 08:56:12;;;;;;;6.80;4.57;;;15.00;99.90;;;;;;5024043;28;20037;-84
2021/09/20 08:58:42;;;;;;;6.22;4.88;;;15.10;99.90;;;;;;5019783;28;20018;-84
2021/09/20 09:01:10;;;;;;;5.90;4.90;;;15.20;99.90;;;;;;5019916;28;20029;-85
2021/09/20 09:03:37;;;;;;;6.13;4.95;;;15.30;99.90;;;;;;5022384;28;20034;-85
2021/09/20 09:06:05;;;;;;;7.32;5.00;;;15.40;99.90;;;;;;5020882;28;20133;-84
2021/09/20 09:08:32;;;;;;;6.45;4.93;;;15.50;99.90;;;;;;5020417;28;20028;-84
2021/09/20 09:11:13;;;;;;;5.90;4.65;;;15.50;99.90;;;;;;5022911;28;20446;-84
2021/09/20 09:13:42;;;;;;;6.82;4.00;;;15.60;99.90;;;;;;5015880;28;20042;-85
2021/09/20 09:16:28;;;;;;;6.70;4.00;;;15.70;99.90;;;;;;5020322;28;20026;-84
2021/09/20 09:19:05;;;;;;;6.72;4.97;;;15.80;99.90;;;;;;5021134;28;20053;-84
2021/09/20 09:21:38;;;;;;;7.90;4.60;;;15.90;99.90;;;;;;5017803;28;20104;-85
2021/09/20 09:24:12;;;;;;;7.97;4.93;;;16.00;99.90;;;;;;5023659;28;20470;-84
2021/09/20 09:27:04;;;;;;;6.35;4.65;;;16.10;99.90;;;;;;5025072;28;20375;-84
2021/09/20 09:29:37;;;;;;;5.63;4.32;;;16.10;99.90;;;;;;5025539;28;20028;-84
2021/09/20 09:32:03;;;;;;;5.68;4.32;;;16.20;99.90;;;;;;5020152;28;20025;-85
2021/09/20 09:34:34;;;;;;;6.57;4.50;;;16.30;99.90;;;;;;5020131;28;20022;-85
2021/09/20 09:37:18;;;;;;;5.93;3.97;;;16.70;99.90;;;;;;5020632;28;20026;-84
2021/09/20 09:39:44;;;;;;;5.45;3.75;;;18.00;99.90;;;;;;5022099;28;20053;-85
2021/09/20 09:42:30;;;;;;;5.15;3.13;;;19.70;99.90;;;;;;5024661;28;20037;-85
2021/09/20 09:45:12;;;;;;;7.93;3.28;;;21.20;99.90;;;;;;5023909;28;20030;-86
2021/09/20 09:47:41;;;;;;;4.50;3.30;;;22.50;98.30;;;;;;5020684;28;20030;-86
2021/09/20 09:50:27;;;;;;;4.18;3.20;;;23.40;96.70;;;;;;5017059;28;20097;-85
2021/09/20 09:52:55;;;;;;;3.87;2.90;;;24.10;95.40;;;;;;5018493;28;20029;-85
2021/09/20 09:55:24;;;;;;;4.35;3.33;;;24.60;94.50;;;;;;5018692;28;20030;-85
2021/09/20 09:57:53;;;;;;;4.00;2.75;;;25.10;92.90;;;;;;5019051;28;20090;-85
2021/09/20 10:00:24;;;;;;;3.10;2.50;;;25.40;92.10;;;;;;5026787;28;20037;-85
2021/09/20 10:02:52;;;;;;;5.63;3.00;;;25.70;91.40;;;;;;5016626;28;20060;-85
2021/09/20 10:05:27;;;;;;;4.05;2.80;;;25.90;90.50;;;;;;5014492;28;20022;-86
2021/09/20 10:07:54;;;;;;;4.05;2.95;;;26.20;89.30;;;;;;5002025;28;20497;-85
2021/09/20 10:10:26;;;;;;;4.40;2.90;;;26.30;86.80;;;;;;5023298;28;20028;-86
2021/09/20 10:12:54;;;;;;;3.67;2.50;;;26.40;86.30;;;;;;5024152;28;20072;-86
2021/09/20 10:15:24;;;;;;;4.00;2.55;;;26.60;84.90;;;;;;5021403;28;20036;-85
2021/09/20 10:17:51;;;;;;;3.45;2.65;;;27.00;83.70;;;;;;5014322;28;20156;-86
2021/09/20 10:20:27;;;;;;;3.45;2.60;;;27.40;82.20;;;;;;5002419;28;20029;-86
2021/09/20 10:22:55;;;;;;;3.10;2.45;;;27.60;79.90;;;;;;5017869;28;20022;-86
2021/09/20 10:25:26;;;;;;;4.50;2.80;;;27.60;78.70;;;;;;5019362;28;20055;-85
2021/09/20 10:27:52;;;;;;;3.40;2.60;;;27.90;77.40;;;;;;5013178;28;20030;-86
2021/09/20 10:30:35;;;;;;;3.90;2.80;;;28.00;76.60;;;;;;5017933;28;20022;-88
2021/09/20 10:33:09;;;;;;;3.53;2.50;;;28.20;74.80;;;;;;5005943;28;20045;-85
2021/09/20 10:35:41;;;;;;;3.13;2.40;;;28.40;74.90;;;;;;5027543;28;20422;-85
2021/09/20 10:38:21;;;;;;;3.10;2.60;;;28.50;73.90;;;;;;5025627;28;20366;-85
2021/09/20 10:41:06;;;;;;;5.03;2.72;;;28.70;73.00;;;;;;5022740;28;20527;-85
2021/09/20 10:43:35;;;;;;;5.57;2.60;;;29.00;71.80;;;;;;5017837;28;20128;-84
2021/09/20 10:46:22;;;;;;;3.22;2.72;;;29.20;71.10;;;;;;5019077;28;20120;-85
2021/09/20 10:49:01;;;;;;;5.53;3.00;;;28.60;69.50;;;;;;5018791;28;20025;-85
2021/09/20 10:51:41;;;;;;;3.38;2.50;;;27.30;69.10;;;;;;5028839;28;20029;-85
2021/09/20 10:54:22;;;;;;;2.95;2.58;;;26.50;71.20;;;;;;5019918;28;20525;-85
2021/09/20 10:56:53;;;;;;;4.68;2.30;;;26.90;71.20;;;;;;5027228;28;20041;-85
2021/09/20 10:59:25;;;;;;;3.88;2.80;;;27.40;70.30;;;;;;5025896;28;20425;-86
2021/09/20 11:02:07;;;;;;;3.65;2.58;;;27.80;69.10;;;;;;5005881;28;20045;-85
2021/09/20 11:04:39;;;;;;;4.13;2.77;;;28.10;68.50;;;;;;5019428;28;20026;-86
2021/09/20 11:07:10;;;;;;;;;;;28.00;67.90;;;;;;5025245;28;20651;-86
2021/09/20 11:10:21;;;;;;;4.38;3.05;;;27.10;68.70;;;;;;5022634;28;20621;-85
2021/09/20 11:13:07;;;;;;;3.38;2.60;;;26.00;69.60;;;;;;5014389;28;20058;-85
2021/09/20 11:15:45;;;;;;;5.10;3.03;;;24.50;72.10;;;;;;5023374;28;20040;-86
2021/09/20 11:18:38;;;;;;;6.63;3.50;;;23.60;73.70;;;;;;5029070;28;20537;-84
2021/09/20 11:21:14;;;;;;;4.63;3.25;;;22.80;75.10;;;;;;5029578;28;20043;-85
2021/09/20 11:23:45;;;;;;;3.80;2.80;;;22.30;75.90;;;;;;5019981;28;20041;-86
2021/09/20 11:26:18;;;;;;;4.82;3.40;;;22.10;76.90;;;;;;5021384;28;20014;-86
2021/09/20 11:28:58;;;;;;;3.97;2.97;;;22.10;76.80;;;;;;5020470;28;20026;-85
2021/09/20 11:31:29;;;;;;;4.55;3.00;;;22.80;77.00;;;;;;5023153;28;20026;-86
2021/09/20 11:33:55;;;;;;;4.43;3.15;;;23.40;75.70;;;;;;5014868;28;20018;-85
2021/09/20 11:36:25;;;;;;;3.83;2.88;;;23.50;75.10;;;;;;5027578;28;20416;-86
2021/09/20 11:39:16;;;;;;;4.28;3.10;;;23.40;75.10;;;;;;5029199;28;20048;-86
2021/09/20 11:41:46;;;;;;;3.75;2.95;;;24.30;75.10;;;;;;5015702;28;20076;-86
2021/09/20 11:44:15;;;;;;;4.07;3.25;;;24.90;74.00;;;;;;5020375;28;20026;-85
2021/09/20 11:46:41;;;;;;;4.55;3.15;;;24.80;72.70;;;;;;5022021;28;20053;-86
2021/09/20 11:49:16;;;;;;;4.65;2.88;;;24.20;73.30;;;;;;5005208;28;20049;-85
2021/09/20 11:51:43;;;;;;;5.80;3.30;;;23.40;75.10;;;;;;5018383;28;20084;-85
2021/09/20 11:54:38;;;;;;;3.28;2.70;;;22.50;75.60;;;;;;5001389;28;20038;-84
2021/09/20 11:57:21;;;;;;;3.85;2.72;;;22.00;77.10;;;;;;5011833;28;20041;-86
2021/09/20 11:59:48;;;;;;;3.78;2.70;;;21.60;78.00;;;;;;5023589;28;20125;-86
2021/09/20 12:03:02;;;;;;;6.70;3.25;;;21.40;78.60;;;;;;5007120;28;20040;-86
2021/09/20 12:05:33;;;;;;;;;;;21.40;78.60;;;;;;5015826;28;20037;-86
2021/09/20 12:08:23;;;;;;;4.47;2.92;;;21.20;78.90;;;;;;5023743;28;19905;-85
2021/09/20 12:10:56;;;;;;;4.45;3.38;;;21.30;79.30;;;;;;5020562;28;20025;-83
2021/09/20 12:13:28;;;;;;;4.15;2.85;;;21.40;78.80;;;;;;5017560;28;20494;-84
2021/09/20 12:16:02;;;;;;;3.63;2.72;;;21.60;78.60;;;;;;5023299;28;20040;-85
2021/09/20 12:18:30;;;;;;;4.10;2.88;;;21.70;78.30;;;;;;5020814;28;20516;-85
2021/09/20 12:21:07;;;;;;;5.45;3.08;;;22.80;78.10;;;;;;5002997;28;20052;-83
2021/09/20 12:23:50;;;;;;;3.88;2.88;;;23.60;76.20;;;;;;5017201;28;20053;-86
2021/09/20 12:26:22;;;;;;;4.03;2.90;;;23.50;76.00;;;;;;5019150;28;20061;-85
2021/09/20 12:29:00;;;;;;;4.07;2.97;;;22.90;76.40;;;;;;5021334;28;20032;-85
2021/09/20 12:31:39;;;;;;;8.05;3.42;;;22.20;77.60;;;;;;5023392;28;20030;-85
2021/09/20 12:34:16;;;;;;;5.55;3.20;;;21.70;78.50;;;;;;5017753;28;20026;-84
2021/09/20 12:36:57;;;;;;;4.78;3.13;;;21.20;79.30;;;;;;5007335;28;20030;-85
2021/09/20 12:39:25;;;;;;;3.55;3.00;;;20.90;80.00;;;;;;5020894;28;20041;-85
2021/09/20 12:41:58;;;;;;;4.50;2.88;;;20.70;80.60;;;;;;5020322;28;20493;-85
2021/09/20 12:44:49;;;;;;;4.40;3.17;;;20.50;81.10;;;;;;5017668;28;20130;-84
2021/09/20 12:47:22;;;;;;;3.83;2.80;;;20.50;81.20;;;;;;5022800;28;20076;-84
2021/09/20 12:50:10;;;;;;;4.55;2.72;;;20.50;81.40;;;;;;5020340;28;20026;-85
2021/09/20 12:52:41;;;;;;;3.80;2.65;;;20.40;81.50;;;;;;5021817;28;20572;-84
2021/09/20 12:55:14;;;;;;;3.60;2.70;;;20.40;81.60;;;;;;5022974;28;20028;-85
2021/09/20 12:57:53;;;;;;;4.22;3.13;;;20.50;81.50;;;;;;5022542;28;20021;-86
2021/09/20 13:00:29;;;;;;;4.28;3.20;;;20.40;81.80;;;;;;5018008;28;20522;-84
2021/09/20 13:03:34;;;;;;;4.40;3.05;;;20.20;81.90;;;;;;5019802;28;20034;-85